Time;durP1;ratioP1;P1;durP2;ratioP2;P2;SDS_P1;SDS_P2;PMS_P1;PMS_P2;Temp;Humidity;BMP_temperature;BMP_pressure;BME280_temperature;BME280_humidity;BME280_pressure;Samples;Min_cycle;Max_cycle;Signal;HPM_P1;HPM_P2
2022/03/21 00:01:10;;;;;;;13.40;9.55;;;8.70;99.90;;;;;;5055243;28;20209;-47
2022/03/21 00:03:35;;;;;;;16.65;11.18;;;8.60;99.90;;;;;;5055375;28;20202;-48
2022/03/21 00:06:01;;;;;;;19.00;11.55;;;8.70;99.90;;;;;;5055284;28;20206;-47
2022/03/21 00:08:28;;;;;;;17.13;10.90;;;8.70;99.90;;;;;;5054957;28;20258;-47
2022/03/21 00:10:54;;;;;;;16.23;11.07;;;8.70;99.90;;;;;;5055532;28;20177;-47
2022/03/21 00:13:21;;;;;;;16.80;10.93;;;8.60;99.90;;;;;;5054889;28;20174;-48
2022/03/21 00:15:47;;;;;;;21.02;12.50;;;8.60;99.90;;;;;;5055115;28;20224;-48
2022/03/21 00:18:14;;;;;;;23.45;12.93;;;8.60;99.90;;;;;;5054858;28;20171;-47
2022/03/21 00:20:41;;;;;;;17.38;11.77;;;8.60;99.90;;;;;;5054877;28;20646;-48
2022/03/21 00:23:07;;;;;;;18.77;11.73;;;8.60;99.90;;;;;;5055024;28;20185;-47
2022/03/21 00:25:33;;;;;;;20.58;11.45;;;8.70;99.90;;;;;;5053476;28;20254;-48
2022/03/21 00:27:59;;;;;;;16.08;11.50;;;8.60;99.90;;;;;;5053497;28;20265;-48
2022/03/21 00:30:26;;;;;;;22.83;12.93;;;8.60;99.90;;;;;;5055111;28;20170;-49
2022/03/21 00:32:51;;;;;;;17.80;11.73;;;8.60;99.90;;;;;;5054848;28;20680;-47
2022/03/21 00:35:17;;;;;;;17.98;11.73;;;8.50;99.90;;;;;;5054549;28;20171;-47
2022/03/21 00:37:45;;;;;;;16.90;12.00;;;8.50;99.90;;;;;;5054433;28;20167;-48
2022/03/21 00:40:11;;;;;;;18.73;12.10;;;8.50;99.90;;;;;;5054399;28;20642;-47
2022/03/21 00:42:39;;;;;;;15.93;11.60;;;8.50;99.90;;;;;;5053128;28;20633;-47
2022/03/21 00:45:11;;;;;;;19.15;12.02;;;8.60;99.90;;;;;;5054299;28;20211;-48
2022/03/21 00:47:37;;;;;;;18.35;12.35;;;8.60;99.90;;;;;;5054210;28;20688;-48
2022/03/21 00:50:08;;;;;;;15.73;11.75;;;8.50;99.90;;;;;;5054218;28;20173;-48
2022/03/21 00:52:45;;;;;;;29.13;13.60;;;8.40;99.90;;;;;;5054222;28;20701;-47
2022/03/21 00:55:12;;;;;;;20.67;12.48;;;8.50;99.90;;;;;;5054161;28;20634;-47
2022/03/21 00:57:40;;;;;;;17.70;12.38;;;8.50;99.90;;;;;;5054122;28;20224;-47
2022/03/21 01:00:08;;;;;;;18.40;12.38;;;8.50;99.90;;;;;;5052757;28;20174;-47
2022/03/21 01:02:35;;;;;;;17.58;11.45;;;8.60;99.90;;;;;;5053699;28;20258;-48
2022/03/21 01:05:00;;;;;;;18.73;11.15;;;8.50;99.90;;;;;;5053939;28;20650;-47
2022/03/21 01:07:26;;;;;;;17.40;11.73;;;8.50;99.90;;;;;;5053854;28;20245;-48
2022/03/21 01:09:52;;;;;;;19.85;11.50;;;8.40;99.90;;;;;;5054380;28;20171;-47
2022/03/21 01:12:17;;;;;;;16.88;11.88;;;8.40;99.90;;;;;;5053804;28;20205;-48
2022/03/21 01:14:43;;;;;;;17.05;12.60;;;8.40;99.90;;;;;;5053750;28;20163;-47
2022/03/21 01:17:08;;;;;;;19.52;11.65;;;8.40;99.90;;;;;;5053866;28;20174;-47
2022/03/21 01:19:34;;;;;;;18.00;12.05;;;8.30;99.90;;;;;;5053685;28;20175;-47
2022/03/21 01:21:59;;;;;;;17.13;12.13;;;8.30;99.90;;;;;;5053586;28;20174;-47
2022/03/21 01:24:25;;;;;;;20.45;13.35;;;8.30;99.90;;;;;;5053940;28;20182;-47
2022/03/21 01:26:51;;;;;;;20.73;12.73;;;8.40;99.90;;;;;;5053644;28;20301;-47
2022/03/21 01:29:17;;;;;;;18.10;11.98;;;8.50;99.90;;;;;;5053496;28;20254;-48
2022/03/21 01:31:42;;;;;;;18.60;11.80;;;8.50;99.90;;;;;;5053715;28;20163;-47
2022/03/21 01:34:08;;;;;;;18.08;12.45;;;8.50;99.90;;;;;;5053439;28;20175;-47
2022/03/21 01:36:33;;;;;;;16.35;11.50;;;8.50;99.90;;;;;;5053425;28;20166;-47
2022/03/21 01:38:59;;;;;;;17.30;11.43;;;8.50;99.90;;;;;;5053013;28;20174;-48
2022/03/21 01:41:24;;;;;;;20.63;12.15;;;8.50;99.90;;;;;;5053595;28;20197;-47
2022/03/21 01:44:07;;;;;;;18.45;11.57;;;8.40;99.90;;;;;;5053174;28;20163;-48
2022/03/21 01:46:35;;;;;;;16.00;11.77;;;8.40;99.90;;;;;;5052987;28;20213;-47
2022/03/21 01:49:02;;;;;;;16.95;11.45;;;8.40;99.90;;;;;;5053068;28;20214;-48
2022/03/21 01:51:28;;;;;;;269.67;106.50;;;8.40;99.90;;;;;;5052906;28;20167;-47
2022/03/21 01:56:40;;;;;;;17.70;12.30;;;8.40;99.90;;;;;;5053293;28;20236;-48
2022/03/21 01:59:08;;;;;;;18.88;12.25;;;8.30;99.90;;;;;;5052900;28;20250;-47
2022/03/21 02:01:34;;;;;;;34.55;20.75;;;8.30;99.90;;;;;;5052968;28;20167;-48
2022/03/21 02:04:00;;;;;;;24.63;16.58;;;8.40;99.90;;;;;;5052884;28;20159;-48
2022/03/21 02:06:28;;;;;;;31.20;17.23;;;8.40;99.90;;;;;;5053077;28;20257;-48
2022/03/21 02:08:57;;;;;;;61.17;34.97;;;8.40;99.90;;;;;;5053304;28;20638;-47
2022/03/21 02:11:23;;;;;;;317.45;175.43;;;8.30;99.90;;;;;;5053185;28;20194;-47
2022/03/21 02:13:49;;;;;;;63.03;39.38;;;8.30;99.90;;;;;;5052740;28;20186;-47
2022/03/21 02:16:15;;;;;;;25.30;15.77;;;8.30;99.90;;;;;;5052688;28;20174;-47
2022/03/21 02:18:42;;;;;;;21.48;13.90;;;8.30;99.90;;;;;;5052507;28;20175;-48
2022/03/21 02:21:14;;;;;;;24.30;14.48;;;8.30;99.90;;;;;;5052657;28;20167;-47
2022/03/21 02:23:48;;;;;;;27.35;18.27;;;8.30;99.90;;;;;;5052732;28;20257;-47
2022/03/21 02:26:15;;;;;;;23.98;13.13;;;8.30;99.90;;;;;;5052416;28;20169;-47
2022/03/21 02:28:42;;;;;;;17.50;12.15;;;8.30;99.90;;;;;;5052284;28;20323;-48
2022/03/21 02:31:08;;;;;;;20.45;13.38;;;8.20;99.90;;;;;;5052444;28;20524;-47
2022/03/21 02:33:34;;;;;;;17.13;12.48;;;8.20;99.90;;;;;;5052387;28;20249;-48
2022/03/21 02:36:03;;;;;;;19.52;12.45;;;8.20;99.90;;;;;;5052292;28;20217;-48
2022/03/21 02:38:29;;;;;;;18.23;10.13;;;8.10;99.90;;;;;;5052506;28;20179;-48
2022/03/21 02:40:56;;;;;;;16.38;11.85;;;7.80;99.90;;;;;;5052513;28;20198;-49
2022/03/21 02:43:21;;;;;;;17.27;11.40;;;7.80;99.90;;;;;;5052486;28;20167;-49
2022/03/21 02:45:47;;;;;;;23.75;15.45;;;7.80;99.90;;;;;;5052110;28;20223;-49
2022/03/21 02:48:13;;;;;;;32.42;28.98;;;7.70;99.90;;;;;;5052085;28;20560;-49
2022/03/21 02:51:01;;;;;;;24.58;22.05;;;7.70;99.90;;;;;;5051531;28;20622;-48
2022/03/21 02:53:30;;;;;;;21.90;16.23;;;7.80;99.90;;;;;;5052187;28;20761;-48
2022/03/21 02:55:56;;;;;;;17.25;12.55;;;7.80;99.90;;;;;;5052603;28;20170;-48
2022/03/21 02:58:22;;;;;;;17.95;12.30;;;7.60;99.90;;;;;;5052234;28;20163;-48
2022/03/21 03:00:48;;;;;;;17.95;11.98;;;7.60;99.90;;;;;;5051995;28;20170;-48
2022/03/21 03:03:14;;;;;;;16.27;11.98;;;7.70;99.90;;;;;;5051892;28;20189;-48
2022/03/21 03:05:40;;;;;;;17.30;11.45;;;7.70;99.90;;;;;;5051851;28;20689;-48
2022/03/21 03:08:05;;;;;;;17.90;12.63;;;7.70;99.90;;;;;;5052096;28;20658;-48
2022/03/21 03:10:31;;;;;;;24.73;14.82;;;7.60;99.90;;;;;;5051880;28;20170;-48
2022/03/21 03:12:56;;;;;;;24.13;13.43;;;7.60;99.90;;;;;;5051858;28;20526;-48
2022/03/21 03:15:22;;;;;;;20.02;13.02;;;7.60;99.90;;;;;;5052217;28;20190;-48
2022/03/21 03:17:47;;;;;;;18.08;11.60;;;7.60;99.90;;;;;;5051874;28;20639;-48
2022/03/21 03:20:13;;;;;;;18.98;12.45;;;7.50;99.90;;;;;;5051802;28;20534;-48
2022/03/21 03:22:40;;;;;;;21.02;12.80;;;7.50;99.90;;;;;;5052049;28;20167;-47
2022/03/21 03:25:06;;;;;;;20.17;12.00;;;7.40;99.90;;;;;;5051740;28;20170;-48
2022/03/21 03:27:31;;;;;;;17.13;12.07;;;7.40;99.90;;;;;;5051713;28;20202;-48
2022/03/21 03:29:58;;;;;;;19.08;11.85;;;7.40;99.90;;;;;;5051696;28;20669;-48
2022/03/21 03:32:27;;;;;;;18.75;12.68;;;7.40;99.90;;;;;;5052032;28;20254;-48
2022/03/21 03:34:53;;;;;;;19.35;12.27;;;7.40;99.90;;;;;;5052186;28;20166;-47
2022/03/21 03:37:19;;;;;;;22.50;13.50;;;7.40;99.90;;;;;;5051802;28;20532;-47
2022/03/21 03:39:45;;;;;;;17.45;12.18;;;7.30;99.90;;;;;;5051597;28;20162;-47
2022/03/21 03:42:10;;;;;;;16.63;11.38;;;7.40;99.90;;;;;;5051551;28;20167;-48
2022/03/21 03:44:36;;;;;;;22.58;12.77;;;7.40;99.90;;;;;;5051659;28;20225;-47
2022/03/21 03:47:02;;;;;;;14.98;10.48;;;7.40;99.90;;;;;;5051309;28;20348;-48
2022/03/21 03:49:27;;;;;;;19.63;13.20;;;7.40;99.90;;;;;;5051678;28;20175;-47
2022/03/21 03:51:53;;;;;;;15.90;11.27;;;7.40;99.90;;;;;;5051794;28;20186;-48
2022/03/21 03:54:18;;;;;;;18.10;11.52;;;7.40;99.90;;;;;;5051469;28;20179;-47
2022/03/21 03:56:44;;;;;;;18.45;11.63;;;7.40;99.90;;;;;;5051761;28;20243;-47
2022/03/21 03:59:10;;;;;;;30.48;19.02;;;7.40;99.90;;;;;;5051652;28;20221;-48
2022/03/21 04:01:37;;;;;;;18.55;12.43;;;7.40;99.90;;;;;;5052951;28;20641;-47
2022/03/21 04:04:03;;;;;;;16.92;10.68;;;7.40;99.90;;;;;;5055052;28;20622;-48
2022/03/21 04:06:29;;;;;;;18.67;11.60;;;7.40;99.90;;;;;;5055172;28;20169;-47
2022/03/21 04:08:54;;;;;;;19.55;11.73;;;7.40;99.90;;;;;;5055222;28;20214;-48
2022/03/21 04:11:20;;;;;;;14.82;11.05;;;7.40;99.90;;;;;;5054990;28;20167;-49
2022/03/21 04:13:49;;;;;;;19.15;11.60;;;7.40;99.90;;;;;;5054881;28;20179;-48
2022/03/21 04:16:15;;;;;;;16.85;10.10;;;7.30;99.90;;;;;;5054886;28;20171;-46
2022/03/21 04:18:41;;;;;;;17.30;10.68;;;7.20;99.90;;;;;;5054848;28;20175;-46
2022/03/21 04:21:06;;;;;;;14.50;10.38;;;7.10;99.90;;;;;;5054845;28;20182;-48
2022/03/21 04:23:32;;;;;;;16.50;11.23;;;7.10;99.90;;;;;;5054721;28;20174;-48
2022/03/21 04:25:58;;;;;;;20.05;11.20;;;7.10;99.90;;;;;;5054661;28;20163;-47
2022/03/21 04:28:23;;;;;;;20.08;11.25;;;7.00;99.90;;;;;;5054862;28;20726;-47
2022/03/21 04:30:49;;;;;;;16.83;11.55;;;7.10;99.90;;;;;;5054617;28;20254;-48
2022/03/21 04:33:15;;;;;;;18.40;11.32;;;7.10;99.90;;;;;;5054563;28;20170;-49
2022/03/21 04:35:42;;;;;;;16.45;10.70;;;7.00;99.90;;;;;;5053242;28;20171;-47
2022/03/21 04:38:14;;;;;;;17.15;11.57;;;6.90;99.90;;;;;;5054546;28;20602;-47
2022/03/21 04:40:45;;;;;;;16.63;12.20;;;6.90;99.90;;;;;;5054450;28;20549;-46
2022/03/21 04:43:13;;;;;;;16.30;11.30;;;6.90;99.90;;;;;;5054417;28;20639;-47
2022/03/21 04:45:39;;;;;;;16.65;11.15;;;6.90;99.90;;;;;;5054387;28;20276;-48
2022/03/21 04:48:05;;;;;;;17.13;10.70;;;6.70;99.90;;;;;;5054253;28;20206;-48
2022/03/21 04:50:31;;;;;;;17.88;11.27;;;6.60;99.90;;;;;;5054343;28;20170;-47
2022/03/21 04:52:57;;;;;;;19.70;11.55;;;6.60;99.90;;;;;;5054199;28;20163;-46
2022/03/21 04:55:23;;;;;;;16.60;10.95;;;6.50;99.90;;;;;;5054695;28;20220;-48
2022/03/21 04:57:49;;;;;;;16.27;10.75;;;6.60;99.90;;;;;;5054094;28;20635;-48
2022/03/21 05:00:14;;;;;;;14.98;10.85;;;6.60;99.90;;;;;;5054151;28;20163;-47
2022/03/21 05:02:41;;;;;;;19.45;11.25;;;6.40;99.90;;;;;;5054100;28;20650;-47
2022/03/21 05:05:08;;;;;;;15.40;10.73;;;6.40;99.90;;;;;;5054258;28;20253;-47
2022/03/21 05:07:41;;;;;;;18.52;12.73;;;6.50;99.90;;;;;;5054075;28;20213;-48
2022/03/21 05:10:07;;;;;;;17.60;11.40;;;6.50;99.90;;;;;;5052647;28;20204;-47
2022/03/21 05:12:32;;;;;;;17.77;10.43;;;6.50;99.90;;;;;;5053308;28;20170;-47
2022/03/21 05:14:58;;;;;;;15.27;10.85;;;6.40;99.90;;;;;;5053767;28;20167;-47
2022/03/21 05:17:28;;;;;;;18.13;11.38;;;6.30;99.90;;;;;;5054021;28;20167;-48
2022/03/21 05:19:53;;;;;;;17.48;11.82;;;6.40;99.90;;;;;;5054036;28;20162;-49
2022/03/21 05:22:19;;;;;;;17.65;11.23;;;6.40;99.90;;;;;;5053815;28;20179;-48
2022/03/21 05:35:54;;;;;;;22.30;11.10;;;6.30;99.90;;;;;;5053482;28;20173;-48
2022/03/21 05:38:24;;;;;;;17.52;10.55;;;6.10;99.90;;;;;;5053588;28;20175;-47
2022/03/21 05:40:51;;;;;;;16.88;10.95;;;6.10;99.90;;;;;;5053201;28;20630;-47
2022/03/21 05:43:17;;;;;;;19.15;11.43;;;6.10;99.90;;;;;;5053350;28;20167;-48
2022/03/21 05:45:43;;;;;;;20.08;11.70;;;6.10;99.90;;;;;;5053116;28;20211;-47
2022/03/21 05:50:52;;;;;;;21.48;11.48;;;6.10;99.90;;;;;;5053349;28;20177;-47
2022/03/21 05:53:18;;;;;;;19.05;10.80;;;6.10;99.90;;;;;;5053061;28;20170;-47
2022/03/21 05:55:45;;;;;;;19.25;12.10;;;6.10;99.90;;;;;;5052819;28;20163;-47
2022/03/21 05:58:11;;;;;;;18.33;11.52;;;6.10;99.90;;;;;;5053171;28;20174;-47
2022/03/21 06:00:36;;;;;;;17.40;11.18;;;6.10;99.90;;;;;;5052863;28;20652;-47
2022/03/21 06:03:03;;;;;;;21.17;11.13;;;6.20;99.90;;;;;;5052885;28;20167;-47
2022/03/21 06:05:30;;;;;;;17.85;10.63;;;6.20;99.90;;;;;;5053161;28;20173;-47
2022/03/21 06:07:55;;;;;;;16.50;11.35;;;6.30;99.90;;;;;;5053050;28;20210;-47
2022/03/21 06:10:21;;;;;;;21.55;11.55;;;6.30;99.90;;;;;;5052918;28;20167;-47
2022/03/21 06:12:48;;;;;;;20.75;12.00;;;6.30;99.90;;;;;;5052952;28;20630;-48
2022/03/21 06:15:14;;;;;;;14.20;10.68;;;6.30;99.90;;;;;;5052932;28;20224;-47
2022/03/21 06:17:41;;;;;;;18.42;10.98;;;6.30;99.90;;;;;;5052830;28;20170;-47
2022/03/21 06:20:08;;;;;;;17.35;10.95;;;6.30;99.90;;;;;;5052174;28;20190;-48
2022/03/21 06:22:34;;;;;;;18.60;12.07;;;6.40;99.90;;;;;;5052763;28;20175;-47
2022/03/21 06:24:59;;;;;;;17.00;11.13;;;6.50;99.90;;;;;;5051625;28;20502;-48
2022/03/21 06:27:25;;;;;;;20.63;10.82;;;6.50;99.90;;;;;;5052547;28;20205;-47
2022/03/21 06:29:51;;;;;;;20.08;11.18;;;6.50;99.90;;;;;;5052967;28;20544;-47
2022/03/21 06:32:16;;;;;;;16.65;10.73;;;6.40;99.90;;;;;;5052269;28;20250;-48
2022/03/21 06:34:42;;;;;;;17.10;10.85;;;6.40;99.90;;;;;;5052222;28;20175;-47
2022/03/21 06:37:08;;;;;;;22.17;13.05;;;6.50;99.90;;;;;;5052408;28;20177;-47
2022/03/21 06:39:34;;;;;;;24.02;12.55;;;6.50;99.90;;;;;;5052457;28;20257;-48
2022/03/21 06:41:59;;;;;;;16.50;11.32;;;6.70;99.90;;;;;;5050674;28;20250;-47
2022/03/21 06:44:25;;;;;;;17.30;10.10;;;6.70;99.90;;;;;;5052357;28;20170;-47
2022/03/21 06:46:50;;;;;;;14.55;11.35;;;6.70;99.90;;;;;;5052061;28;20217;-47
2022/03/21 06:49:16;;;;;;;17.73;11.35;;;6.80;99.90;;;;;;5051826;28;20327;-47
2022/03/21 06:51:41;;;;;;;20.88;12.18;;;6.90;99.90;;;;;;5051909;28;20228;-48
2022/03/21 06:54:07;;;;;;;16.38;11.85;;;7.00;99.90;;;;;;5051934;28;20182;-48
2022/03/21 06:56:32;;;;;;;19.55;11.98;;;7.00;99.90;;;;;;5051959;28;20158;-48
2022/03/21 06:58:58;;;;;;;15.52;11.35;;;7.10;99.90;;;;;;5051997;28;20166;-49
2022/03/21 07:01:25;;;;;;;20.13;12.85;;;7.20;99.90;;;;;;5052307;28;20519;-49
2022/03/21 07:03:50;;;;;;;19.17;14.73;;;7.30;99.90;;;;;;5051905;28;20657;-48
2022/03/21 07:06:17;;;;;;;25.05;13.27;;;9.50;99.90;;;;;;5051879;28;20167;-47
2022/03/21 07:08:42;;;;;;;24.17;13.43;;;7.50;99.90;;;;;;5052002;28;20225;-48
2022/03/21 07:11:12;;;;;;;20.20;13.00;;;7.60;99.90;;;;;;5052171;28;20170;-48
2022/03/21 07:13:38;;;;;;;22.40;13.93;;;7.70;99.90;;;;;;5052104;28;20228;-48
2022/03/21 07:16:04;;;;;;;23.52;15.68;;;7.80;99.90;;;;;;5051798;28;20228;-47
2022/03/21 07:18:30;;;;;;;25.60;15.80;;;8.00;99.90;;;;;;5050757;28;20178;-48
2022/03/21 07:20:55;;;;;;;28.42;16.63;;;8.10;99.90;;;;;;5052099;28;20185;-48
2022/03/21 07:23:21;;;;;;;24.40;16.23;;;8.10;99.90;;;;;;5052107;28;20236;-48
2022/03/21 07:25:47;;;;;;;26.00;17.05;;;8.20;99.90;;;;;;5051588;28;20266;-48
2022/03/21 07:28:12;;;;;;;26.50;16.85;;;8.30;99.90;;;;;;5051659;28;20727;-48
2022/03/21 07:30:38;;;;;;;29.35;17.30;;;8.40;99.90;;;;;;5051683;28;20215;-49
2022/03/21 07:33:04;;;;;;;26.27;16.70;;;8.50;99.90;;;;;;5050397;28;20538;-47
2022/03/21 07:35:30;;;;;;;27.52;16.83;;;8.60;99.90;;;;;;5051567;28;20205;-49
2022/03/21 07:37:57;;;;;;;25.05;17.30;;;8.70;99.90;;;;;;5055757;28;20182;-48
2022/03/21 07:40:24;;;;;;;25.33;17.02;;;8.80;99.90;;;;;;5055819;28;20179;-48
2022/03/21 07:42:50;;;;;;;27.73;17.27;;;8.90;99.90;;;;;;5054357;28;20170;-47
2022/03/21 07:48:02;;;;;;;28.10;17.05;;;9.10;99.90;;;;;;5055460;28;20225;-48
2022/03/21 07:50:29;;;;;;;26.52;17.15;;;9.20;99.90;;;;;;5055524;28;20261;-48
2022/03/21 07:52:57;;;;;;;25.52;17.80;;;9.30;99.90;;;;;;5055895;28;20175;-49
2022/03/21 07:55:22;;;;;;;23.85;16.73;;;9.40;99.90;;;;;;5055849;28;20170;-48
2022/03/21 07:57:48;;;;;;;27.95;16.70;;;9.50;99.90;;;;;;5055263;28;20258;-47
2022/03/21 08:00:15;;;;;;;26.77;17.45;;;9.50;99.90;;;;;;5055196;28;20175;-48
2022/03/21 08:02:45;;;;;;;29.90;18.02;;;9.60;99.90;;;;;;5055195;28;20236;-48
2022/03/21 08:05:13;;;;;;;27.67;18.35;;;9.60;99.90;;;;;;5055387;28;20179;-48
2022/03/21 08:07:38;;;;;;;25.27;17.17;;;9.70;99.90;;;;;;5055254;28;20198;-47
2022/03/21 08:10:04;;;;;;;27.17;17.95;;;9.80;99.90;;;;;;5055243;28;20220;-47
2022/03/21 08:12:30;;;;;;;28.15;18.45;;;9.90;99.90;;;;;;5054956;28;20692;-48
2022/03/21 08:14:56;;;;;;;28.27;19.08;;;10.00;99.90;;;;;;5055026;28;20171;-47
2022/03/21 08:17:23;;;;;;;25.48;18.10;;;10.10;99.90;;;;;;5055453;28;20599;-47
2022/03/21 08:19:48;;;;;;;23.85;18.95;;;10.10;99.90;;;;;;5055157;28;20171;-47
2022/03/21 08:22:15;;;;;;;28.77;19.27;;;10.30;99.90;;;;;;5055057;28;20564;-47
2022/03/21 08:24:41;;;;;;;27.10;19.10;;;10.30;99.90;;;;;;5055025;28;20181;-48
2022/03/21 08:27:07;;;;;;;28.02;18.67;;;10.40;99.90;;;;;;5054601;28;20166;-48
2022/03/21 08:29:32;;;;;;;25.92;18.85;;;10.50;99.90;;;;;;5054580;28;20179;-47
2022/03/21 08:31:58;;;;;;;27.35;19.67;;;10.60;99.90;;;;;;5053277;28;20162;-47
2022/03/21 08:34:24;;;;;;;28.42;20.33;;;10.70;99.90;;;;;;5054931;28;20632;-47
2022/03/21 08:36:50;;;;;;;30.27;20.27;;;10.80;99.90;;;;;;5054844;28;20170;-48
2022/03/21 08:39:15;;;;;;;29.50;20.33;;;10.90;99.90;;;;;;5054607;28;21119;-47
2022/03/21 08:41:41;;;;;;;26.92;19.55;;;11.00;99.90;;;;;;5054547;28;20178;-49
2022/03/21 08:44:06;;;;;;;30.10;18.98;;;11.10;99.90;;;;;;5054400;28;20181;-48
2022/03/21 08:46:32;;;;;;;27.40;19.42;;;11.10;99.90;;;;;;5054012;28;20222;-47
2022/03/21 08:51:43;;;;;;;26.50;18.42;;;11.50;99.90;;;;;;5054571;28;20677;-47
2022/03/21 08:54:12;;;;;;;27.80;20.42;;;11.60;99.90;;;;;;5054501;28;20170;-48
2022/03/21 08:56:38;;;;;;;25.20;18.75;;;11.70;99.90;;;;;;5054181;28;20182;-47
2022/03/21 08:59:04;;;;;;;29.55;19.27;;;11.60;99.90;;;;;;5054417;28;20584;-47
2022/03/21 09:01:31;;;;;;;28.08;19.38;;;11.70;99.90;;;;;;5054398;28;20589;-47
2022/03/21 09:04:00;;;;;;;34.00;19.48;;;11.70;99.90;;;;;;5054272;28;20520;-47
2022/03/21 09:06:26;;;;;;;30.20;19.52;;;11.90;99.90;;;;;;5054029;28;20162;-47
2022/03/21 09:08:51;;;;;;;31.23;19.25;;;12.10;99.90;;;;;;5054160;28;20210;-47
2022/03/21 09:11:17;;;;;;;28.42;19.45;;;12.20;99.90;;;;;;5054183;28;20250;-47
2022/03/21 09:13:46;;;;;;;30.15;19.67;;;12.40;99.90;;;;;;5053852;28;20622;-47
2022/03/21 09:16:13;;;;;;;27.17;19.25;;;12.50;99.90;;;;;;5053531;28;20162;-48
2022/03/21 09:18:39;;;;;;;28.08;20.02;;;12.50;99.90;;;;;;5054048;28;20166;-47
2022/03/21 09:21:05;;;;;;;28.30;19.42;;;12.60;99.90;;;;;;5053945;28;20174;-48
2022/03/21 09:23:31;;;;;;;26.73;19.90;;;12.70;99.90;;;;;;5053656;28;20652;-47
2022/03/21 09:25:56;;;;;;;24.70;19.05;;;12.60;99.90;;;;;;5053680;28;20174;-47
2022/03/21 09:28:22;;;;;;;24.17;19.00;;;12.70;99.90;;;;;;5054046;28;20560;-47
2022/03/21 09:30:48;;;;;;;24.23;18.08;;;12.90;99.90;;;;;;5053525;28;20705;-47
2022/03/21 09:33:15;;;;;;;24.58;18.85;;;13.10;99.90;;;;;;5053455;28;20245;-47
2022/03/21 09:35:43;;;;;;;24.83;18.27;;;13.10;99.90;;;;;;5053716;28;20555;-47
2022/03/21 09:38:09;;;;;;;24.60;18.42;;;13.10;99.90;;;;;;5053486;28;20154;-47
2022/03/21 09:40:35;;;;;;;21.75;18.20;;;13.10;99.90;;;;;;5053349;28;20191;-47
2022/03/21 09:43:01;;;;;;;25.48;18.98;;;13.20;99.90;;;;;;5053258;28;20618;-47
2022/03/21 09:45:27;;;;;;;24.13;18.98;;;13.40;99.90;;;;;;5053207;28;20221;-47
2022/03/21 09:48:08;;;;;;;22.73;17.48;;;13.60;99.90;;;;;;5053456;28;20213;-47
2022/03/21 09:50:36;;;;;;;25.45;19.08;;;13.70;99.90;;;;;;5051905;28;20177;-47
2022/03/21 09:53:04;;;;;;;24.33;17.80;;;13.70;99.90;;;;;;5053390;28;20171;-48
2022/03/21 09:55:29;;;;;;;26.98;18.33;;;13.90;99.90;;;;;;5053021;28;20167;-48
2022/03/21 09:57:55;;;;;;;23.23;18.27;;;14.00;99.90;;;;;;5053335;28;20177;-47
2022/03/21 10:00:21;;;;;;;26.55;17.83;;;14.20;99.90;;;;;;5053069;28;20170;-47
2022/03/21 10:02:47;;;;;;;27.15;18.92;;;14.20;99.90;;;;;;5051685;28;20170;-47
2022/03/21 10:05:38;;;;;;;27.13;18.30;;;14.10;99.90;;;;;;5052904;28;20241;-47
2022/03/21 10:08:14;;;;;;;26.95;18.52;;;14.20;99.90;;;;;;5052646;28;20689;-47
2022/03/21 10:10:40;;;;;;;23.40;17.23;;;14.30;99.90;;;;;;5053050;28;20174;-48
2022/03/21 10:13:09;;;;;;;24.48;17.17;;;14.30;99.90;;;;;;5052719;28;20173;-48
2022/03/21 10:15:36;;;;;;;29.75;19.33;;;14.40;99.90;;;;;;5052761;28;20167;-48
2022/03/21 10:18:08;;;;;;;28.55;17.58;;;14.50;99.90;;;;;;5052834;28;20174;-47
2022/03/21 10:20:35;;;;;;;27.25;17.38;;;14.60;99.90;;;;;;5052577;28;20622;-48
2022/03/21 10:23:17;;;;;;;24.00;18.15;;;14.80;99.90;;;;;;5052810;28;20183;-47
2022/03/21 10:25:43;;;;;;;25.88;18.48;;;14.80;99.90;;;;;;5052516;28;20258;-47
2022/03/21 10:28:09;;;;;;;26.73;19.13;;;14.90;99.90;;;;;;5052423;28;20770;-48
2022/03/21 10:30:42;;;;;;;28.17;19.80;;;14.80;99.90;;;;;;5052727;28;20202;-48
2022/03/21 10:33:08;;;;;;;29.83;22.42;;;15.00;99.90;;;;;;5052312;28;20166;-48
2022/03/21 10:35:44;;;;;;;30.80;21.80;;;15.30;99.90;;;;;;5051938;28;20167;-49
2022/03/21 10:38:10;;;;;;;38.67;25.55;;;15.50;99.90;;;;;;5052628;28;20177;-47
2022/03/21 10:40:47;;;;;;;24.40;20.15;;;15.50;99.90;;;;;;5052136;28;20553;-48
2022/03/21 10:43:14;;;;;;;29.85;20.90;;;15.50;99.90;;;;;;5052035;28;20221;-47
2022/03/21 10:45:53;;;;;;;35.05;26.88;;;15.40;99.90;;;;;;5052113;28;20325;-47
2022/03/21 10:48:25;;;;;;;26.15;19.75;;;15.60;99.90;;;;;;5052018;28;20504;-47
2022/03/21 10:50:53;;;;;;;23.75;19.15;;;15.80;99.90;;;;;;5052553;28;20178;-47
2022/03/21 10:53:33;;;;;;;28.50;20.48;;;15.80;99.90;;;;;;5052288;28;20185;-48
2022/03/21 10:56:07;;;;;;;29.63;20.70;;;16.00;99.90;;;;;;5052166;28;20547;-48
2022/03/21 10:58:38;;;;;;;31.27;21.30;;;16.20;99.90;;;;;;5052304;28;20545;-47
2022/03/21 11:01:11;;;;;;;30.13;23.50;;;16.10;99.90;;;;;;5051990;28;20634;-47
2022/03/21 11:03:41;;;;;;;29.67;17.75;;;16.20;99.90;;;;;;5050657;28;20699;-49
2022/03/21 11:06:10;;;;;;;25.23;20.38;;;16.30;99.90;;;;;;5051943;28;20158;-49
2022/03/21 11:08:36;;;;;;;28.45;20.05;;;16.10;99.90;;;;;;5052112;28;20672;-49
2022/03/21 11:11:03;;;;;;;28.33;20.77;;;16.30;99.90;;;;;;5051508;28;20181;-49
2022/03/21 11:13:31;;;;;;;25.90;18.55;;;16.40;99.90;;;;;;5051724;28;20174;-47
2022/03/21 11:15:56;;;;;;;27.40;20.63;;;16.30;99.90;;;;;;5051916;28;20178;-48
2022/03/21 11:18:24;;;;;;;30.52;20.52;;;16.30;99.90;;;;;;5051893;28;20514;-48
2022/03/21 11:20:51;;;;;;;32.38;22.25;;;16.50;99.90;;;;;;5050898;28;20163;-48
2022/03/21 11:23:18;;;;;;;29.83;19.65;;;16.40;99.90;;;;;;5051787;28;20199;-48
2022/03/21 11:25:48;;;;;;;25.85;19.25;;;16.60;99.90;;;;;;5052105;28;20170;-48
2022/03/21 11:28:55;;;;;;;36.40;25.05;;;16.50;99.90;;;;;;5051846;28;20209;-48
2022/03/21 11:31:58;;;;;;;39.78;25.75;;;16.50;99.90;;;;;;5039601;28;20179;-48
2022/03/21 11:34:45;;;;;;;25.05;18.80;;;16.70;99.90;;;;;;5052009;28;20260;-48
2022/03/21 11:37:25;;;;;;;49.45;33.10;;;16.70;99.90;;;;;;5051761;28;20174;-49
2022/03/21 11:40:30;;;;;;;32.22;20.98;;;16.70;99.90;;;;;;5050250;28;20532;-48
2022/03/21 11:43:18;;;;;;;42.00;28.17;;;16.80;99.90;;;;;;5051730;28;20190;-49
2022/03/21 11:45:55;;;;;;;35.10;24.58;;;16.80;99.90;;;;;;5051193;28;20675;-49
2022/03/21 11:48:23;;;;;;;30.38;20.35;;;16.90;99.90;;;;;;5051516;28;20245;-49
2022/03/21 11:51:14;;;;;;;24.90;17.80;;;17.00;99.90;;;;;;5051565;28;20166;-47
2022/03/21 11:53:49;;;;;;;31.23;21.08;;;17.20;99.90;;;;;;5051437;28;20631;-47
2022/03/21 11:56:37;;;;;;;25.77;19.38;;;17.00;99.90;;;;;;5051532;28;20228;-48
2022/03/21 11:59:03;;;;;;;23.63;18.48;;;17.10;99.90;;;;;;5051439;28;20162;-47
2022/03/21 12:01:30;;;;;;;30.17;17.58;;;17.30;99.90;;;;;;5051462;28;20162;-48
2022/03/21 12:04:25;;;;;;;35.25;21.98;;;17.30;99.90;;;;;;5051696;28;20167;-47
2022/03/21 12:06:51;;;;;;;30.80;18.75;;;17.20;99.90;;;;;;5051241;28;20634;-48
2022/03/21 12:09:17;;;;;;;29.67;17.17;;;17.20;99.90;;;;;;5051237;28;20209;-47
2022/03/21 12:11:46;;;;;;;35.95;22.00;;;17.30;99.90;;;;;;5051213;28;20162;-47
2022/03/21 12:14:21;;;;;;;31.17;19.98;;;17.30;99.90;;;;;;5051257;28;20170;-48
2022/03/21 12:16:48;;;;;;;25.20;15.98;;;17.40;99.90;;;;;;5051270;28;20163;-48
2022/03/21 12:19:13;;;;;;;27.58;16.27;;;17.60;99.90;;;;;;5051263;28;20749;-47
2022/03/21 12:21:39;;;;;;;17.52;12.45;;;17.50;99.90;;;;;;5051164;28;20206;-47
2022/03/21 12:24:13;;;;;;;18.70;12.40;;;17.60;99.90;;;;;;5053408;28;20158;-47
2022/03/21 12:26:47;;;;;;;29.15;17.70;;;17.50;99.90;;;;;;5054930;28;20178;-48
2022/03/21 12:29:33;;;;;;;20.45;13.70;;;17.60;99.90;;;;;;5054546;28;20583;-48
2022/03/21 12:32:24;;;;;;;25.50;20.20;;;17.80;99.90;;;;;;5054835;28;20177;-48
2022/03/21 12:34:51;;;;;;;17.98;12.20;;;17.80;99.90;;;;;;5054621;28;20167;-48
2022/03/21 12:37:41;;;;;;;17.45;11.35;;;18.00;99.90;;;;;;5054558;28;20163;-48
2022/03/21 12:40:12;;;;;;;15.45;11.98;;;17.90;99.90;;;;;;5054504;28;20186;-48
2022/03/21 12:42:44;;;;;;;20.85;14.55;;;17.90;99.90;;;;;;5054288;28;20158;-48
2022/03/21 12:45:16;;;;;;;20.92;16.33;;;17.90;99.90;;;;;;5054219;28;20666;-48
2022/03/21 12:47:42;;;;;;;18.83;15.50;;;17.80;99.90;;;;;;5054327;28;20320;-47
2022/03/21 12:50:08;;;;;;;19.77;16.65;;;17.80;99.90;;;;;;5054395;28;20191;-47
2022/03/21 12:52:34;;;;;;;20.88;15.23;;;18.10;99.90;;;;;;5054468;28;20171;-48
2022/03/21 12:55:00;;;;;;;23.15;17.73;;;18.10;99.90;;;;;;5054049;28;20178;-48
2022/03/21 12:57:27;;;;;;;42.40;33.22;;;18.10;99.90;;;;;;5054742;28;20163;-47
2022/03/21 12:59:53;;;;;;;21.15;15.65;;;18.10;99.90;;;;;;5054748;28;20178;-48